createdAt,value
2023-02-12T00:02:13.610Z,3.53
2023-02-12T00:04:58.855Z,7.70
2023-02-12T00:07:44.273Z,7.60
2023-02-12T00:10:29.694Z,5.35
2023-02-12T00:13:15.191Z,2.95
2023-02-12T00:16:05.208Z,3.53
2023-02-12T00:18:55.896Z,2.17
2023-02-12T00:21:41.456Z,3.42
2023-02-12T00:24:28.042Z,2.83
2023-02-12T00:27:13.608Z,2.85
2023-02-12T00:29:58.930Z,2.88
2023-02-12T00:32:47.869Z,3.05
2023-02-12T00:35:33.094Z,2.63
2023-02-12T00:38:19.308Z,2.53
2023-02-12T00:41:05.304Z,2.40
2023-02-12T00:43:51.455Z,2.05
2023-02-12T00:46:36.832Z,2.58
2023-02-12T00:49:22.172Z,1.70
2023-02-12T00:52:07.487Z,1.58
2023-02-12T00:54:52.879Z,1.75
2023-02-12T00:57:38.279Z,1.40
2023-02-12T01:00:23.849Z,1.25
2023-02-12T01:03:09.176Z,1.10
2023-02-12T01:05:55.153Z,1.50
2023-02-12T01:08:40.852Z,1.25
2023-02-12T01:11:26.116Z,1.40
2023-02-12T01:14:11.557Z,1.10
2023-02-12T01:16:58.438Z,1.05
2023-02-12T01:19:43.784Z,1.30
2023-02-12T01:22:29.193Z,1.45
2023-02-12T01:25:14.670Z,1.73
2023-02-12T01:28:00.380Z,1.83
2023-02-12T01:30:45.723Z,2.30
2023-02-12T01:33:31.039Z,2.22
2023-02-12T01:36:16.917Z,1.88
2023-02-12T01:39:04.238Z,1.83
2023-02-12T01:41:49.682Z,2.05
2023-02-12T01:44:37.665Z,2.05
2023-02-12T01:47:23.248Z,1.63
2023-02-12T01:50:11.468Z,1.85
2023-02-12T01:52:58.932Z,2.10
2023-02-12T01:55:44.514Z,1.70
2023-02-12T01:58:35.357Z,1.80
2023-02-12T02:01:24.573Z,1.70
2023-02-12T02:04:17.304Z,2.28
2023-02-12T02:07:04.923Z,1.77
2023-02-12T02:09:51.212Z,1.92
2023-02-12T02:12:56.064Z,2.33
2023-02-12T02:15:47.535Z,2.08
2023-02-12T02:18:46.843Z,1.90
2023-02-12T02:21:41.294Z,1.75
2023-02-12T02:24:52.848Z,1.50
2023-02-12T02:27:47.299Z,1.30
2023-02-12T02:30:45.567Z,1.70
2023-02-12T02:33:34.229Z,1.08
2023-02-12T02:36:59.590Z,1.13
2023-02-12T02:39:55.426Z,1.25
2023-02-12T02:42:49.693Z,1.13
2023-02-12T02:45:41.835Z,1.30
2023-02-12T02:48:40.823Z,1.30
2023-02-12T02:51:37.498Z,1.40
2023-02-12T02:54:41.174Z,1.88
2023-02-12T02:57:34.843Z,1.52
2023-02-12T03:00:32.165Z,1.35
2023-02-12T03:03:40.511Z,1.40
2023-02-12T03:06:28.944Z,1.27
2023-02-12T03:09:47.576Z,1.27
2023-02-12T03:12:41.430Z,1.08
2023-02-12T03:15:39.099Z,0.73
2023-02-12T03:18:30.932Z,0.90
2023-02-12T03:21:22.598Z,0.82
2023-02-12T03:24:16.440Z,0.70
2023-02-12T03:27:15.487Z,0.63
2023-02-12T03:30:02.222Z,0.80
2023-02-12T03:33:09.537Z,0.63
2023-02-12T03:36:27.945Z,0.63
2023-02-12T03:39:38.703Z,0.90
2023-02-12T03:42:37.986Z,0.65
2023-02-12T03:45:26.596Z,0.90
2023-02-12T03:48:39.684Z,0.50
2023-02-12T03:51:25.501Z,1.00
2023-02-12T03:54:14.452Z,0.60
2023-02-12T03:57:08.417Z,0.82
2023-02-12T03:59:53.849Z,0.63
2023-02-12T04:02:39.866Z,0.85
2023-02-12T04:05:27.626Z,0.50
2023-02-12T04:08:13.795Z,1.35
2023-02-12T04:11:02.099Z,0.43
2023-02-12T04:14:01.791Z,0.60
2023-02-12T04:17:10.102Z,0.77
2023-02-12T04:20:16.632Z,0.80
2023-02-12T04:23:14.400Z,0.70
2023-02-12T04:26:23.528Z,0.60
2023-02-12T04:29:17.281Z,1.08
2023-02-12T04:32:28.565Z,1.00
2023-02-12T04:35:32.174Z,0.52
2023-02-12T04:38:39.161Z,0.60
2023-02-12T04:41:26.164Z,0.52
2023-02-12T04:44:26.319Z,0.95
2023-02-12T04:47:17.052Z,0.65
2023-02-12T04:50:02.537Z,0.73
2023-02-12T04:52:48.059Z,1.02
2023-02-12T04:55:33.751Z,0.90
2023-02-12T04:58:19.738Z,1.17
2023-02-12T05:01:05.100Z,0.80
2023-02-12T05:03:52.356Z,1.00
2023-02-12T05:06:39.102Z,0.90
2023-02-12T05:09:24.462Z,1.00
2023-02-12T05:12:09.869Z,1.17
2023-02-12T05:14:55.126Z,1.20
2023-02-12T05:17:40.636Z,1.20
2023-02-12T05:20:26.142Z,1.02
2023-02-12T05:23:11.427Z,1.27
2023-02-12T05:26:01.635Z,1.52
2023-02-12T05:28:48.120Z,1.35
2023-02-12T05:31:33.599Z,1.30
2023-02-12T05:34:20.360Z,1.27
2023-02-12T05:37:05.663Z,1.42
2023-02-12T05:39:51.129Z,1.30
2023-02-12T05:42:36.670Z,1.30
2023-02-12T05:45:22.020Z,1.00
2023-02-12T05:48:07.889Z,1.27
2023-02-12T05:50:53.359Z,1.00
2023-02-12T05:53:39.843Z,1.13
2023-02-12T05:56:36.194Z,1.08
2023-02-12T05:59:23.468Z,0.98
2023-02-12T06:02:08.854Z,0.70
2023-02-12T06:04:54.052Z,0.70
2023-02-12T06:07:39.347Z,0.70
2023-02-12T06:10:24.545Z,0.50
2023-02-12T06:13:09.950Z,0.82
2023-02-12T06:15:55.613Z,0.70
2023-02-12T06:18:41.135Z,0.70
2023-02-12T06:21:27.169Z,0.95
2023-02-12T06:24:14.444Z,0.85
2023-02-12T06:26:59.805Z,0.80
2023-02-12T06:29:45.257Z,1.17
2023-02-12T06:32:30.736Z,0.90
2023-02-12T06:35:16.144Z,0.93
2023-02-12T06:38:01.585Z,1.00
2023-02-12T06:40:46.863Z,1.00
2023-02-12T06:43:32.236Z,0.90
2023-02-12T06:46:18.172Z,1.17
2023-02-12T06:49:03.729Z,1.02
2023-02-12T06:51:49.248Z,1.05
2023-02-12T06:54:34.478Z,1.00
2023-02-12T06:57:19.926Z,0.70
2023-02-12T07:00:05.897Z,0.98
2023-02-12T07:02:55.627Z,0.85
2023-02-12T07:05:41.572Z,0.88
2023-02-12T07:08:26.768Z,0.80
2023-02-12T07:11:12.665Z,1.30
2023-02-12T07:13:58.352Z,1.17
2023-02-12T07:16:43.928Z,0.80
2023-02-12T07:19:29.944Z,0.57
2023-02-12T07:22:16.666Z,0.52
2023-02-12T07:25:01.907Z,0.90
2023-02-12T07:27:47.175Z,0.82
2023-02-12T07:30:32.572Z,0.68
2023-02-12T07:33:18.767Z,0.88
2023-02-12T07:36:06.538Z,0.70
2023-02-12T07:38:52.401Z,0.50
2023-02-12T07:41:37.986Z,0.60
2023-02-12T07:44:23.252Z,0.50
2023-02-12T07:47:08.636Z,0.63
2023-02-12T07:49:54.016Z,0.70
2023-02-12T07:52:39.433Z,0.80
2023-02-12T07:55:25.882Z,0.52
2023-02-12T07:58:11.366Z,0.50
2023-02-12T08:00:56.601Z,0.60
2023-02-12T08:03:42.772Z,0.60
2023-02-12T08:06:30.806Z,0.90
2023-02-12T08:09:21.783Z,0.60
2023-02-12T08:12:07.783Z,0.60
2023-02-12T08:14:54.517Z,0.77
2023-02-12T08:17:39.930Z,0.68
2023-02-12T08:20:25.458Z,0.63
2023-02-12T08:23:10.754Z,0.80
2023-02-12T08:25:56.364Z,0.57
2023-02-12T08:28:48.064Z,0.43
2023-02-12T08:31:39.786Z,0.50
2023-02-12T08:34:33.912Z,0.80
2023-02-12T08:37:19.565Z,0.63
2023-02-12T08:40:05.450Z,0.68
2023-02-12T08:42:53.041Z,0.88
2023-02-12T08:45:38.615Z,0.50
2023-02-12T08:48:24.079Z,0.68
2023-02-12T08:51:21.616Z,1.00
2023-02-12T08:54:12.960Z,0.68
2023-02-12T08:57:00.598Z,0.75
2023-02-12T08:59:45.988Z,1.73
2023-02-12T09:02:31.727Z,1.10
2023-02-12T09:05:17.251Z,1.33
2023-02-12T09:08:02.630Z,0.80
2023-02-12T09:10:48.225Z,1.48
2023-02-12T09:13:34.748Z,0.93
2023-02-12T09:16:20.164Z,1.10
2023-02-12T09:19:06.627Z,0.88
2023-02-12T09:21:56.061Z,1.00
2023-02-12T09:24:42.361Z,1.15
2023-02-12T09:27:30.303Z,1.10
2023-02-12T09:30:17.025Z,1.20
2023-02-12T09:33:02.679Z,1.60
2023-02-12T09:35:47.873Z,1.42
2023-02-12T09:38:33.789Z,1.10
2023-02-12T09:41:39.209Z,0.90
2023-02-12T09:44:41.117Z,1.20
2023-02-12T09:47:53.072Z,1.13
2023-02-12T09:51:00.140Z,0.97
2023-02-12T09:53:48.537Z,1.20
2023-02-12T09:56:38.452Z,0.85
2023-02-12T09:59:39.277Z,1.20
2023-02-12T10:02:25.051Z,1.40
2023-02-12T10:05:19.830Z,1.50
2023-02-12T10:08:27.010Z,1.30
2023-02-12T10:11:42.486Z,1.27
2023-02-12T10:14:46.356Z,1.40
2023-02-12T10:17:51.868Z,1.20
2023-02-12T10:20:46.886Z,1.63
2023-02-12T10:24:09.842Z,1.13
2023-02-12T10:27:00.679Z,1.33
2023-02-12T10:29:48.853Z,1.30
2023-02-12T10:32:36.715Z,1.17
2023-02-12T10:35:23.985Z,1.75
2023-02-12T10:38:28.011Z,1.58
2023-02-12T10:41:16.513Z,1.52
2023-02-12T10:44:02.061Z,1.52
2023-02-12T10:46:47.501Z,1.58
2023-02-12T10:49:33.571Z,1.85
2023-02-12T10:52:19.260Z,2.08
2023-02-12T10:55:24.395Z,2.08
2023-02-12T10:58:22.746Z,1.38
2023-02-12T11:01:36.878Z,2.30
2023-02-12T11:04:29.568Z,2.08
2023-02-12T11:07:15.261Z,1.80
2023-02-12T11:10:00.916Z,1.63
2023-02-12T11:12:49.280Z,1.63
2023-02-12T11:15:49.352Z,1.40
2023-02-12T11:18:36.693Z,1.10
2023-02-12T11:21:23.450Z,1.55
2023-02-12T11:24:28.960Z,0.95
2023-02-12T11:27:25.360Z,1.42
2023-02-12T11:30:10.746Z,1.00
2023-02-12T11:33:15.590Z,1.35
2023-02-12T11:36:26.375Z,1.63
2023-02-12T11:39:28.518Z,1.50
2023-02-12T11:42:16.929Z,1.83
2023-02-12T11:45:04.092Z,2.33
2023-02-12T11:47:50.837Z,2.08
2023-02-12T11:50:37.559Z,1.73
2023-02-12T11:53:31.508Z,1.98
2023-02-12T11:56:17.792Z,2.58
2023-02-12T11:59:17.961Z,3.15
2023-02-12T12:02:12.423Z,2.83
2023-02-12T12:05:08.137Z,2.80
2023-02-12T12:07:58.855Z,2.50
2023-02-12T12:11:08.183Z,2.90
2023-02-12T12:13:59.583Z,2.90
2023-02-12T12:17:13.598Z,2.67
2023-02-12T12:20:13.974Z,3.00
2023-02-12T12:23:14.487Z,2.80
2023-02-12T12:26:07.522Z,2.78
2023-02-12T12:28:56.087Z,2.30
2023-02-12T12:31:48.736Z,2.03
2023-02-12T12:34:34.370Z,1.40
2023-02-12T12:37:44.819Z,2.10
2023-02-12T12:40:59.502Z,2.58
2023-02-12T12:43:54.343Z,2.83
2023-02-12T12:46:51.214Z,2.90
2023-02-12T12:49:45.429Z,2.83
2023-02-12T12:52:33.801Z,3.10
2023-02-12T12:55:36.509Z,3.35
2023-02-12T12:58:34.512Z,2.85
2023-02-12T13:01:57.261Z,3.00
2023-02-12T13:04:49.135Z,2.95
2023-02-12T13:07:42.941Z,2.80
2023-02-12T13:10:45.465Z,3.10
2023-02-12T13:13:38.460Z,2.95
2023-02-12T13:16:43.387Z,2.92
2023-02-12T13:20:08.366Z,3.25
2023-02-12T13:23:02.995Z,2.65
2023-02-12T13:26:05.038Z,2.55
2023-02-12T13:28:55.300Z,2.17
2023-02-12T13:32:05.911Z,2.45
2023-02-12T13:34:53.330Z,2.72
2023-02-12T13:37:53.136Z,2.88
2023-02-12T13:40:41.044Z,3.30
2023-02-12T13:43:36.046Z,2.50
2023-02-12T13:46:30.450Z,2.70
2023-02-12T13:49:27.634Z,2.80
2023-02-12T13:52:19.346Z,2.55
2023-02-12T13:55:19.880Z,3.10
2023-02-12T13:58:34.857Z,2.50
2023-02-12T14:01:49.479Z,2.47
2023-02-12T14:04:47.381Z,2.40
2023-02-12T14:07:54.222Z,1.50
2023-02-12T14:10:43.047Z,2.00
2023-02-12T14:13:34.255Z,2.33
2023-02-12T14:16:21.420Z,2.08
2023-02-12T14:19:38.183Z,1.60
2023-02-12T14:22:26.432Z,2.40
2023-02-12T14:25:14.805Z,1.90
2023-02-12T14:28:15.308Z,1.95
2023-02-12T14:31:19.481Z,2.53
2023-02-12T14:34:05.045Z,1.75
2023-02-12T14:37:12.360Z,1.75
2023-02-12T14:40:45.415Z,1.60
2023-02-12T14:43:54.333Z,2.78
2023-02-12T14:46:39.810Z,1.98
2023-02-12T14:49:33.100Z,2.90
2023-02-12T14:52:32.583Z,2.67
2023-02-12T14:55:33.966Z,2.65
2023-02-12T14:58:22.915Z,3.13
2023-02-12T15:01:08.569Z,2.47
2023-02-12T15:03:57.935Z,1.65
2023-02-12T15:06:52.904Z,1.85
2023-02-12T15:09:47.964Z,2.65
2023-02-12T15:12:43.406Z,1.58
2023-02-12T15:15:37.472Z,1.70
2023-02-12T15:18:37.964Z,1.60
2023-02-12T15:21:34.123Z,1.88
2023-02-12T15:24:25.670Z,1.90
2023-02-12T15:27:15.679Z,1.80
2023-02-12T15:30:01.200Z,2.30
2023-02-12T15:32:47.307Z,1.80
2023-02-12T15:35:36.117Z,1.52
2023-02-12T15:38:45.866Z,2.10
2023-02-12T15:41:34.296Z,1.65
2023-02-12T15:44:22.667Z,1.77
2023-02-12T15:47:17.268Z,1.77
2023-02-12T15:50:02.905Z,2.30
2023-02-12T15:52:50.843Z,1.77
2023-02-12T15:55:41.021Z,1.60
2023-02-12T15:58:26.515Z,2.08
2023-02-12T16:01:26.795Z,1.55
2023-02-12T16:04:13.147Z,2.85
2023-02-12T16:07:00.480Z,1.40
2023-02-12T16:09:47.066Z,1.50
2023-02-12T16:12:37.707Z,1.90
2023-02-12T16:15:32.559Z,2.20
2023-02-12T16:18:26.542Z,2.38
2023-02-12T16:21:22.431Z,2.85
2023-02-12T16:24:31.964Z,2.53
2023-02-12T16:27:20.678Z,3.90
2023-02-12T16:30:23.040Z,4.50
2023-02-12T16:33:40.992Z,3.10
2023-02-12T16:36:26.301Z,4.03
2023-02-12T16:39:50.107Z,3.90
2023-02-12T16:42:35.900Z,3.38
2023-02-12T16:45:34.678Z,2.30
2023-02-12T16:48:24.886Z,2.20
2023-02-12T16:51:28.532Z,2.90
2023-02-12T16:54:32.699Z,2.97
2023-02-12T16:57:18.163Z,5.32
2023-02-12T17:00:05.268Z,4.00
2023-02-12T17:02:51.034Z,5.05
2023-02-12T17:05:36.281Z,3.17
2023-02-12T17:08:23.982Z,3.83
2023-02-12T17:11:10.917Z,2.47
2023-02-12T17:13:57.072Z,5.95
2023-02-12T17:16:42.826Z,2.97
2023-02-12T17:19:28.392Z,5.05
2023-02-12T17:22:26.806Z,5.43
2023-02-12T17:25:13.649Z,6.53
2023-02-12T17:27:59.101Z,5.43
2023-02-12T17:30:45.549Z,5.47
2023-02-12T17:33:31.100Z,5.60
2023-02-12T17:36:16.678Z,6.80
2023-02-12T17:39:04.824Z,4.35
2023-02-12T17:41:51.788Z,11.60
2023-02-12T17:44:37.609Z,11.40
2023-02-12T17:47:23.416Z,7.00
2023-02-12T17:50:11.827Z,7.40
2023-02-12T17:52:57.174Z,7.50
2023-02-12T17:55:42.419Z,6.60
2023-02-12T17:58:27.805Z,8.90
2023-02-12T18:01:18.416Z,8.68
2023-02-12T18:04:04.228Z,13.10
2023-02-12T18:06:49.961Z,6.22
2023-02-12T18:09:37.272Z,4.28
2023-02-12T18:12:22.727Z,4.80
2023-02-12T18:15:09.384Z,5.85
2023-02-12T18:17:54.766Z,7.82
2023-02-12T18:20:41.047Z,7.82
2023-02-12T18:23:26.390Z,6.93
2023-02-12T18:26:14.916Z,6.85
2023-02-12T18:29:00.940Z,5.60
2023-02-12T18:31:46.682Z,7.78
2023-02-12T18:34:32.477Z,5.25
2023-02-12T18:37:18.416Z,5.30
2023-02-12T18:40:04.453Z,4.90
2023-02-12T18:42:50.097Z,7.07
2023-02-12T18:45:35.630Z,6.22
2023-02-12T18:48:21.142Z,5.53
2023-02-12T18:51:08.468Z,5.20
2023-02-12T18:54:01.748Z,5.80
2023-02-12T18:56:51.287Z,10.30
2023-02-12T18:59:37.011Z,16.50
2023-02-12T19:02:23.113Z,11.95
2023-02-12T19:05:10.521Z,15.00
2023-02-12T19:07:56.726Z,15.35
2023-02-12T19:10:42.494Z,8.32
2023-02-12T19:13:27.967Z,6.88
2023-02-12T19:16:15.900Z,7.93
2023-02-12T19:19:02.937Z,10.43
2023-02-12T19:21:48.799Z,12.40
2023-02-12T19:24:45.947Z,16.13
2023-02-12T19:27:32.605Z,12.05
2023-02-12T19:30:18.105Z,12.30
2023-02-12T19:33:04.005Z,9.18
2023-02-12T19:35:50.113Z,8.25
2023-02-12T19:38:36.494Z,7.80
2023-02-12T19:41:24.194Z,7.55
2023-02-12T19:44:12.589Z,7.40
2023-02-12T19:46:58.262Z,7.32
2023-02-12T19:49:44.210Z,5.90
2023-02-12T19:52:29.641Z,7.45
2023-02-12T19:55:15.177Z,8.45
2023-02-12T19:58:00.791Z,13.30
2023-02-12T20:00:46.436Z,7.60
2023-02-12T20:03:32.102Z,9.60
2023-02-12T20:06:23.493Z,9.13
2023-02-12T20:09:10.965Z,7.30
2023-02-12T20:11:57.475Z,6.32
2023-02-12T20:14:42.751Z,7.60
2023-02-12T20:17:28.071Z,5.93
2023-02-12T20:20:13.869Z,6.22
2023-02-12T20:22:59.785Z,6.80
2023-02-12T20:25:45.466Z,6.32
2023-02-12T20:28:31.135Z,5.57
2023-02-12T20:31:19.404Z,7.03
2023-02-12T20:34:09.081Z,7.38
2023-02-12T20:36:54.830Z,6.75
2023-02-12T20:39:40.200Z,6.93
2023-02-12T20:42:25.520Z,6.93
2023-02-12T20:45:11.116Z,6.95
2023-02-12T20:47:56.660Z,6.07
2023-02-12T20:50:42.023Z,6.53
2023-02-12T20:53:27.855Z,5.25
2023-02-12T20:56:28.374Z,5.10
2023-02-12T20:59:14.018Z,5.43
2023-02-12T21:01:59.451Z,5.35
2023-02-12T21:04:45.394Z,5.07
2023-02-12T21:07:30.647Z,5.57
2023-02-12T21:10:16.888Z,4.60
2023-02-12T21:13:02.377Z,4.82
2023-02-12T21:15:47.747Z,5.43
2023-02-12T21:18:33.526Z,6.15
2023-02-12T21:21:21.770Z,5.80
2023-02-12T21:24:11.685Z,6.78
2023-02-12T21:26:57.398Z,5.93
2023-02-12T21:29:42.703Z,5.72
2023-02-12T21:32:28.268Z,4.40
2023-02-12T21:35:14.359Z,5.95
2023-02-12T21:38:00.092Z,6.07
2023-02-12T21:40:45.507Z,5.70
2023-02-12T21:43:30.856Z,4.97
2023-02-12T21:46:16.559Z,7.20
2023-02-12T21:49:03.376Z,10.85
2023-02-12T21:51:49.272Z,9.70
2023-02-12T21:54:35.011Z,11.50
2023-02-12T21:57:21.949Z,8.65
2023-02-12T22:00:08.154Z,6.88
2023-02-12T22:02:58.337Z,8.07
2023-02-12T22:05:43.974Z,8.30
2023-02-12T22:08:29.449Z,7.13
2023-02-12T22:11:15.807Z,7.35
2023-02-12T22:14:01.514Z,7.28
2023-02-12T22:16:47.807Z,6.93
2023-02-12T22:19:33.495Z,6.20
2023-02-12T22:22:18.980Z,7.30
2023-02-12T22:25:05.000Z,6.90
2023-02-12T22:27:50.585Z,7.40
2023-02-12T22:30:36.246Z,8.32
2023-02-12T22:33:21.784Z,7.75
2023-02-12T22:36:09.674Z,7.60
2023-02-12T22:38:58.160Z,8.77
2023-02-12T22:41:43.595Z,9.27
2023-02-12T22:44:29.097Z,8.50
2023-02-12T22:47:14.588Z,8.60
2023-02-12T22:50:00.398Z,9.80
2023-02-12T22:52:45.930Z,10.25
2023-02-12T22:55:31.378Z,8.50
2023-02-12T22:58:17.389Z,8.77
2023-02-12T23:01:17.983Z,9.60
2023-02-12T23:04:03.505Z,8.38
2023-02-12T23:06:49.177Z,8.63
2023-02-12T23:09:34.544Z,10.95
2023-02-12T23:12:20.068Z,9.70
2023-02-12T23:15:05.998Z,11.77
2023-02-12T23:17:51.992Z,12.77
2023-02-12T23:20:37.505Z,10.05
2023-02-12T23:23:23.157Z,10.95
2023-02-12T23:26:08.816Z,10.50
2023-02-12T23:28:54.824Z,10.18
2023-02-12T23:31:40.645Z,8.95
2023-02-12T23:34:26.490Z,9.80
2023-02-12T23:37:11.770Z,9.00
2023-02-12T23:39:57.198Z,9.48
2023-02-12T23:42:42.546Z,8.80
2023-02-12T23:45:28.906Z,8.75
2023-02-12T23:48:15.282Z,8.55
2023-02-12T23:51:00.623Z,9.10
2023-02-12T23:53:45.961Z,8.07
2023-02-12T23:56:31.438Z,7.90
2023-02-12T23:59:16.743Z,8.93
